helminc.com alexa rank chart, helminc.com alexa rank daily changes

helminc.com alexa rank chart, helminc.com alexa rank daily changes

helminc.com
Actual rank:
378 829

RANK HISTORY

Date Rank Diff
2017/08/20 378 829 +7 711
2017/08/19 371 118 -4 083
2017/08/18 375 201 -2 202
2017/08/17 377 403 -17 000
2017/08/16 394 403 +21 283
2017/08/15 373 120 +354
2017/08/14 372 766 -5 246
2017/08/13 378 012 -849
2017/08/12 378 861 -3 497
2017/08/11 382 358 +12 920
2017/08/10 369 438 -11 631
2017/08/09 381 069 -765
2017/08/08 381 834 +17 030
2017/08/07 364 804 -1 037
2017/08/06 365 841 -9 729
2017/08/05 375 570 -6 122
2017/08/04 381 692 -3 311
2017/08/03 385 003 -7 836
2017/08/02 392 839 -6 782
2017/08/01 399 621 +502
2017/07/31 399 119 -17 103
2017/07/30 416 222 +9 351
2017/07/29 406 871 +638
2017/07/28 406 233 -19 281
2017/07/27 425 514 +9 946
2017/07/26 415 568 +33 230
2017/07/25 382 338 -4 152
2017/07/24 386 490 -3 620
2017/07/23 390 110 -949
2017/07/22 391 059 +8 064
2017/07/21 382 995 -11 085
2017/07/20 394 080 -7 770
2017/07/19 401 850 +7 995
2017/07/18 393 855 +13 500
2017/07/17 380 355 +8 717
2017/07/16 371 638 -22 565
2017/07/15 394 203 -15 685
2017/07/14 409 888 +3 981
2017/07/13 405 907 -4 435
2017/07/12 410 342 +21 740
2017/07/11 388 602 -1 588
2017/07/10 390 190 -9 547
2017/07/09 399 737 -3 531
2017/07/08 403 268 -33
2017/07/07 403 301 -24 513
2017/07/06 427 814 -2 729
2017/07/05 430 543 +16 684
2017/07/04 413 859 -7 105
2017/07/03 420 964 +21 654
2017/07/02 399 310 -15 210
2017/07/01 414 520 -1 564
2017/06/30 416 084 -9 522
2017/06/29 425 606 +3 067
2017/06/28 422 539 +4 064
2017/06/27 418 475 -8 761
2017/06/26 427 236 -16 538
2017/06/25 443 774 -3 215
2017/06/24 446 989 -1 207
2017/06/23 448 196 +1 512
2017/06/22 446 684 -15 763
2017/06/21 462 447

WIDGET FOR YOUR SITE

DOMAINS WITH THE NEAREST RANK

Domain Rank
prostoinvesticii.com 378 824
junglejims.com 378 825
pornovenezuela.org 378 826
syndicateads.net 378 827
dfdsseaways.dk 378 828
helminc.com 378 829
teampresent.net 378 830
foreverlove.ru 378 831
megaventory.com 378 832
themmaker.ir 378 833
chemheritage.org 378 834

DOMAINS WITH THE NEAREST RANK BY TLD .com

Domain Rank
easycodeway.com 378 818
webgraphviz.com 378 819
twitchtemple.com 378 821
prostoinvesticii.com 378 824
junglejims.com 378 825
helminc.com 378 829
megaventory.com 378 832
wow-trend.com 378 835
tcdai.com 378 837
webteleradio.com 378 838
ketabfm.com 378 840